Terminal Aerodrome Forecast
Issued by NWS

Home | Current Version | Previous Version | Text Only | Print | Product List | Glossary On
Versions: 1 2 3 4 5 6 7 8 9 10 11 12 13 14 15 16 17 18 19 20 21 22 23 24 25 26 27 28 29
000
FTUS44 KOUN 070520
TAFCSM
TAF
KCSM 070520Z 0706/0806 09010KT P6SM SHRA VCTS FEW040CB SCT090
      OVC110
      TEMPO 0706/0708 5SM -TSRA BKN040CB
     FM071000 03011KT 6SM -RA OVC010
     FM071400 03011G18KT 3SM -RA BR OVC008=

USA.gov is the U.S. government's official web portal to all federal, state and local government web resources and services.